Terminal Aerodrome Forecast
Issued by NWS

Home | Current Version | Previous Version | Graphics & Text | Print | Product List | Glossary On
Versions: 1 2 3 4 5 6 7 8 9 10 11 12 13 14 15 16 17 18 19 20
133
FTUS43 KBIS 221158 AAA
TAFMOT
TAF AMD
KMOT 221158Z 2212/2312 16018G23KT P6SM OVC026
     FM221700 19012KT P6SM VCTS BKN035CB
     FM222000 20013KT P6SM BKN080
     FM222200 20013KT P6SM -SHRA VCTS BKN080CB
     FM230000 21012KT P6SM SCT200=

USA.gov is the U.S. government's official web portal to all federal, state and local government web resources and services.